Latest Weather Observations for Richmond

IDQ60801

Issued at 11:03 am EST Sunday 18 February 2018 (issued every 30 minutes, with the page automatically refreshed every 10 minutes)

About weather observations | Map of weather stations | Latest weather observations for QLD | Other Formats
Station Details ID: 030161 Name: RICHMOND AIRPORT Lat: -20.70 Lon: 143.12 Height: 206.3 m
Data from the previous 72 hours. | See also: Recent months at Richmond
Date/Time
EST
Temp
°C
App
Temp
°C
Dew
Point
°C
Rel
Hum
%
Delta-T
°C
Wind Press
QNH
hPa
Press
MSL
hPa
Rain since
9am
mm
Dir  Spd
km/h
Gust
km/h
Spd
kts
Gust
kts
18/11:00am 36.0 34.5 17.7 34 12.0 NW 22 32 12 17 1009.7 1008.1 0.0
18/10:30am 35.6 33.9 18.2 35 11.4 NNW 24 35 13 19 1009.8 1008.2 0.0
18/10:00am 34.8 33.4 19.6 40 10.2 NW 26 33 14 18 1010.3 1008.8 0.0
18/09:30am 32.8 30.3 18.9 43 9.1 NW 30 37 16 20 1010.4 1008.9 0.0
18/09:00am 30.9 29.2 18.9 48 7.9 NNW 26 33 14 18 1010.5 1009.0 1.6
18/08:30am 29.5 29.6 19.2 54 6.7 N 17 28 9 15 1010.5 1009.0 1.6
18/08:00am 27.5 28.4 19.3 61 5.3 N 13 20 7 11 1010.4 1008.9 1.6
18/07:30am 26.4 26.8 19.0 63 4.8 N 15 22 8 12 1010.2 1008.7 1.6
18/07:00am 25.3 26.1 19.0 68 4.1 N 13 22 7 12 1009.6 1008.0 1.6
18/06:30am 24.2 25.1 19.3 74 3.2 NNW 13 17 7 9 1008.8 1007.3 1.6
18/06:00am 24.2 25.0 19.1 73 3.3 NNW 13 17 7 9 1008.5 1007.0 1.6
18/05:30am 24.4 24.7 19.5 74 3.2 N 17 22 9 12 1008.7 1007.2 1.6
18/05:00am 24.7 24.9 20.2 76 3.0 N 19 24 10 13 1008.8 1007.3 1.6
18/04:30am 24.8 25.6 20.7 78 2.7 NNE 17 24 9 13 1008.7 1007.2 1.6
18/04:00am 24.7 25.4 20.4 77 2.8 NE 17 22 9 12 1008.8 1007.3 1.6
18/03:30am 25.2 25.7 20.9 77 2.8 NNE 19 24 10 13 1008.8 1007.3 1.6
18/03:00am 24.4 25.5 19.7 75 3.1 NE 13 17 7 9 1008.9 1007.4 1.6
18/02:30am 24.5 24.0 19.1 72 3.5 NE 20 32 11 17 1008.6 1007.1 1.6
18/02:00am 24.1 23.1 20.4 80 2.4 NE 26 37 14 20 1008.3 1006.8 1.6
18/01:41am 24.4 23.3 21.7 85 1.8 NNE 30 44 16 24 1007.7 1006.2 1.2
18/01:30am 24.3 25.7 21.8 86 1.7 ENE 17 26 9 14 1008.6 1007.1 1.0
18/01:00am 27.0 27.3 19.6 64 4.8 ENE 17 32 9 17 1008.7 1007.2 0.4
18/12:30am 30.7 30.4 17.4 45 8.5 NE 15 22 8 12 1008.6 1007.1 0.0
18/12:00am 31.0 29.7 17.3 43 8.8 NNE 20 28 11 15 1008.4 1006.9 0.0
 
Date/Time
EST
Temp
°C
App
Temp
°C
Dew
Point
°C
Rel
Hum
%
Delta-T
°C
Wind Press
QNH
hPa
Press
MSL
hPa
Rain since
9am
mm
Dir  Spd
km/h
Gust
km/h
Spd
kts
Gust
kts
17/11:30pm 31.3 31.6 17.9 44 8.7 N 13 17 7 9 1007.9 1006.4 0.0
17/11:00pm 31.4 32.1 18.0 44 8.7 N 11 15 6 8 1007.8 1006.3 0.0
17/10:30pm 31.7 31.8 18.3 45 8.7 NNE 15 20 8 11 1007.8 1006.3 0.0
17/10:00pm 32.3 31.1 17.0 40 9.8 NNE 19 26 10 14 1007.5 1006.0 0.0
17/09:30pm 33.1 32.3 16.0 35 10.8 NNE 15 20 8 11 1006.7 1005.2 0.0
17/09:00pm 33.1 31.8 16.9 38 10.4 N 19 22 10 12 1006.4 1004.9 0.0
17/08:30pm 33.2 32.7 17.0 38 10.4 N 15 19 8 10 1005.8 1004.3 0.0
17/08:00pm 33.7 31.9 17.0 37 10.8 N 22 30 12 16 1005.2 1003.6 0.0
17/07:30pm 34.6 33.4 16.0 33 11.8 NNW 17 22 9 12 1004.7 1003.1 0.0
17/07:00pm 35.0 33.1 15.3 30 12.5 N 19 26 10 14 1004.5 1002.9 0.0
17/06:30pm 36.6 34.1 16.2 29 13.1 NNW 24 33 13 18 1004.1 1002.6 0.0
17/06:00pm 37.6 35.2 15.4 27 14.2 N 22 32 12 17 1003.8 1002.3 0.0
17/05:30pm 38.0 35.9 15.2 26 14.5 N 20 28 11 15 1003.6 1002.1 0.0
17/05:00pm 37.2 33.2 15.1 27 14.0 NNW 30 43 16 23 1003.4 1001.9 0.0
17/04:30pm 39.5 38.0 15.2 24 15.5 NW 17 30 9 16 1003.3 1001.8 0.0
17/04:00pm 40.2 37.3 9.6 16 18.2 W 15 26 8 14 1003.7 1002.2 0.0
17/03:30pm 40.8 38.4 10.0 16 18.4 SSW 13 28 7 15 1003.9 1002.4 0.0
17/03:00pm 40.9 39.3 10.1 16 18.5 W 9 20 5 11 1004.4 1002.8 0.0
17/02:30pm 40.7 39.8 12.6 19 17.4 SSW 9 24 5 13 1005.1 1003.5 0.0
17/02:00pm 38.7 38.4 14.5 24 15.3 W 9 19 5 10 1005.4 1003.8 0.0
17/01:30pm 39.1 37.9 16.1 26 14.8 W 17 26 9 14 1005.9 1004.4 0.0
17/01:00pm 39.2 39.0 16.8 27 14.6 WSW 13 22 7 12 1006.6 1005.1 0.0
17/12:30pm 38.2 37.7 15.9 26 14.3 NW 13 19 7 10 1007.0 1005.5 0.0
17/12:00pm 37.4 36.3 17.4 30 13.1 WNW 19 32 10 17 1007.5 1006.0 0.0
17/11:30am 37.7 37.4 18.2 32 12.9 WNW 17 26 9 14 1007.9 1006.4 0.0
17/11:00am 36.9 37.8 18.4 33 12.2 NW 11 20 6 11 1008.2 1006.7 0.0
17/10:30am 35.2 34.5 17.4 34 11.6 WSW 17 24 9 13 1008.4 1006.9 0.0
17/10:00am 33.9 32.9 18.8 41 10.0 WNW 22 32 12 17 1008.6 1007.1 0.0
17/09:30am 31.9 31.0 18.1 43 9.0 WNW 20 30 11 16 1008.8 1007.3 0.0
17/09:00am 32.4 31.7 18.2 42 9.3 WNW 19 28 10 15 1008.9 1007.4 0.0
17/08:30am 30.4 29.6 18.5 49 7.7 WNW 20 26 11 14 1008.6 1007.1 0.0
17/08:00am 29.3 28.4 19.0 53 6.7 NW 22 28 12 15 1008.5 1007.0 0.0
17/07:30am 28.7 28.6 19.6 58 6.0 WNW 19 24 10 13 1008.4 1006.9 0.0
17/07:00am 27.9 28.2 19.7 61 5.4 WNW 17 20 9 11 1008.4 1006.9 0.0
17/06:30am 26.1 26.2 19.2 65 4.5 NW 17 19 9 10 1008.0 1006.5 0.0
17/06:00am 25.7 26.6 18.4 64 4.7 WNW 11 13 6 7 1007.9 1006.4 0.0
17/05:30am 26.1 26.9 18.2 61 5.0 W 11 17 6 9 1007.7 1006.2 0.0
17/05:00am 26.3 27.6 18.4 61 5.1 W 9 11 5 6 1007.6 1006.1 0.0
17/04:30am 26.7 26.9 18.6 61 5.2 NW 15 17 8 9 1007.5 1006.0 0.0
17/04:00am 27.3 27.5 18.6 59 5.6 WNW 15 17 8 9 1007.5 1006.0 0.0
17/03:30am 27.4 28.3 18.4 58 5.8 WNW 11 13 6 7 1007.4 1005.9 0.0
17/03:00am 28.2 29.2 18.6 56 6.2 WNW 11 15 6 8 1007.2 1005.7 0.0
17/02:30am 28.6 29.9 18.4 54 6.6 WNW 9 15 5 8 1007.4 1005.9 0.0
17/02:00am 29.0 29.5 18.4 52 6.9 WNW 13 17 7 9 1007.4 1005.9 0.0
17/01:30am 29.7 30.3 18.5 51 7.3 NW 13 17 7 9 1007.4 1005.9 0.0
17/01:00am 30.3 31.7 18.7 50 7.6 NW 9 15 5 8 1007.6 1006.1 0.0
17/12:30am 30.1 30.3 18.5 49 7.5 N 15 24 8 13 1007.8 1006.3 0.0
17/12:00am 29.9 29.4 18.7 51 7.3 N 19 24 10 13 1007.9 1006.4 0.0
 
Date/Time
EST
Temp
°C
App
Temp
°C
Dew
Point
°C
Rel
Hum
%
Delta-T
°C
Wind Press
QNH
hPa
Press
MSL
hPa
Rain since
9am
mm
Dir  Spd
km/h
Gust
km/h
Spd
kts
Gust
kts
16/11:30pm 29.8 30.2 18.9 52 7.1 NNE 15 19 8 10 1008.4 1006.9 0.0
16/11:00pm 30.1 30.8 18.8 50 7.4 NNE 13 19 7 10 1008.4 1006.9 0.0
16/10:30pm 30.8 29.6 18.5 47 8.0 NNE 22 32 12 17 1008.3 1006.8 0.0
16/10:00pm 31.6 29.7 18.6 46 8.5 NNE 26 35 14 19 1008.0 1006.5 0.0
16/09:30pm 32.0 30.5 18.6 45 8.8 NNE 24 37 13 20 1007.9 1006.4 0.0
16/09:00pm 33.4 31.7 18.0 40 10.0 NE 24 35 13 19 1007.6 1006.1 0.0
16/08:30pm 35.5 34.0 15.3 30 12.7 NNW 17 20 9 11 1006.7 1005.2 0.0
16/08:00pm 34.3 32.8 12.0 25 13.4 N 11 13 6 7 1006.1 1004.6 0.0
16/07:30pm 35.6 33.4 9.2 20 15.2 NNW 11 15 6 8 1005.3 1003.7 0.0
16/07:00pm 37.5 35.0 8.3 17 16.8 WNW 11 13 6 7 1005.0 1003.4 0.0
16/06:30pm 40.2 36.9 9.6 16 18.1 W 17 26 9 14 1004.9 1003.3 0.0
16/06:00pm 40.8 37.1 10.0 16 18.4 W 20 32 11 17 1004.8 1003.2 0.0
16/05:30pm 40.9 37.4 10.1 16 18.4 WSW 19 24 10 13 1004.7 1003.1 0.0
16/05:00pm 41.5 38.5 10.6 16 18.7 SSW 17 37 9 20 1004.8 1003.2 0.0
16/04:30pm 41.6 39.5 12.5 18 18.0 WNW 15 30 8 16 1005.2 1003.6 0.0
16/04:00pm 40.3 37.4 12.2 19 17.3 WSW 19 26 10 14 1005.6 1004.0 0.0
16/03:30pm 41.3 39.5 12.2 18 17.9 S 13 19 7 10 1005.9 1004.4 0.0
16/03:00pm 40.7 40.5 14.8 22 16.5 NNW 9 17 5 9 1006.3 1004.8 0.0
16/02:30pm 40.0 39.6 14.2 21 16.3 NNW 9 17 5 9 1006.8 1005.3 0.0
16/02:00pm 39.6 39.1 15.9 25 15.3 SW 13 20 7 11 1007.3 1005.8 0.0
16/01:30pm 39.3 37.9 15.6 24 15.2 WNW 17 26 9 14 1007.8 1006.3 0.0
16/01:00pm 39.2 38.4 16.2 26 14.9 SW 15 30 8 16 1008.3 1006.8 0.0
16/12:30pm 37.5 37.4 17.0 30 13.3 WSW 13 22 7 12 1008.7 1007.2 0.0
16/12:00pm 37.9 38.2 17.8 30 13.2 NW 13 20 7 11 1009.1 1007.6 0.0
16/11:30am 36.5 36.1 17.1 31 12.6 W 15 24 8 13 1009.8 1008.2 0.0
16/11:00am 34.7 34.8 18.3 38 10.8 NW 15 26 8 14 1010.4 1008.9 0.0
16/10:30am 34.1 34.1 19.7 42 9.6 NW 19 26 10 14 1010.9 1009.4 0.0
16/10:00am 34.0 34.1 21.1 47 8.8 NW 22 33 12 18 1011.2 1009.7 0.0
16/09:30am 33.6 33.5 21.4 48 8.3 NNW 24 33 13 18 1011.4 1009.9 0.0
16/09:00am 32.3 31.3 21.2 52 7.5 NNW 28 39 15 21 1011.3 1009.8 0.0
16/08:30am 32.0 31.2 20.9 52 7.5 NNW 26 35 14 19 1011.1 1009.6 0.0
16/08:00am 32.2 30.4 18.8 45 8.8 NNW 26 37 14 20 1010.7 1009.2 0.0
16/07:56am 31.8 30.2 18.4 45 8.7 NNW 24 37 13 20 1010.5 1009.0 0.0
16/07:30am 31.1 31.7 17.8 45 8.6 N 11 19 6 10 1010.8 1009.3 0.0
16/07:00am 28.2 28.9 17.1 51 7.0 NE 9 13 5 7 1010.7 1009.2 0.0
16/06:30am 27.4 28.3 16.7 52 6.7 NE 7 11 4 6 1010.3 1008.8 0.0
16/06:00am 27.8 29.8 17.0 51 6.8 NNW 2 9 1 5 1009.9 1008.3 0.0
16/05:30am 26.8 28.2 16.4 53 6.5 WNW 4 9 2 5 1009.1 1007.6 0.0
16/05:00am 28.9 31.2 16.8 48 7.6 CALM 0 6 0 3 1008.6 1007.1 0.0
16/04:30am 29.0 30.1 18.1 51 7.0 W 9 11 5 6 1008.2 1006.7 0.0
16/04:00am 29.7 29.7 18.2 50 7.4 WNW 15 19 8 10 1007.8 1006.3 0.0
16/03:30am 29.5 30.1 18.6 52 7.1 W 13 15 7 8 1007.6 1006.1 0.0
16/03:00am 30.8 30.8 17.1 43 8.8 WNW 13 15 7 8 1007.7 1006.2 0.0
16/02:30am 30.0 30.5 17.5 47 8.0 NW 11 13 6 7 1007.6 1006.1 0.0
16/02:00am 30.3 30.6 17.0 44 8.5 WNW 11 13 6 7 1007.8 1006.3 0.0
16/01:30am 31.2 31.2 17.1 42 9.0 NW 13 17 7 9 1008.0 1006.5 0.0
16/01:00am 31.9 31.3 16.6 39 9.7 NW 15 19 8 10 1008.3 1006.8 0.0
16/12:30am 32.4 31.6 17.1 40 9.8 N 17 24 9 13 1008.3 1006.8 0.0
16/12:00am 32.6 30.1 17.2 39 9.9 NNE 26 35 14 19 1009.0 1007.5 0.0
 
Date/Time
EST
Temp
°C
App
Temp
°C
Dew
Point
°C
Rel
Hum
%
Delta-T
°C
Wind Press
QNH
hPa
Press
MSL
hPa
Rain since
9am
mm
Dir  Spd
km/h
Gust
km/h
Spd
kts
Gust
kts
15/11:30pm 32.5 31.9 17.5 40 9.7 ENE 17 26 9 14 1009.7 1008.1 0.0
15/11:00pm 33.9 31.7 14.9 32 11.9 ENE 20 33 11 18 1009.2 1007.7 0.0
15/10:30pm 34.5 33.8 13.3 27 13.0 NE 9 13 5 7 1008.3 1006.8 0.0
15/10:00pm 36.4 34.0 12.6 24 14.5 E 17 28 9 15 1008.0 1006.5 0.0
15/09:44pm 36.3 33.7 13.1 25 14.2 ESE 19 43 10 23 1008.3 1006.8 0.0
15/09:30pm 36.2 35.3 13.6 25 14.0 WSW 11 20 6 11 1008.3 1006.8 0.0
15/09:00pm 34.7 34.3 14.0 28 12.8 SSE 9 19 5 10 1008.0 1006.5 0.0
15/08:30pm 34.7 34.8 14.0 28 12.8 SSE 6 7 3 4 1007.6 1006.1 0.0
15/08:00pm 34.4 33.3 14.3 30 12.5 WSW 13 20 7 11 1007.1 1005.6 0.0
15/07:30pm 34.9 33.8 14.2 28 12.8 W 13 20 7 11 1007.1 1005.6 0.0
15/07:00pm 36.1 36.3 14.1 26 13.7 E 6 9 3 5 1007.2 1005.7 0.0
15/06:30pm 36.2 34.3 14.2 26 13.7 E 17 26 9 14 1007.2 1005.7 0.0
15/06:00pm 35.9 32.6 14.0 27 13.6 WSW 24 35 13 19 1007.1 1005.6 0.0
15/05:32pm 36.4 31.9 13.8 26 14.0 W 30 50 16 27 1007.2 1005.7 0.0
15/05:30pm 35.9 31.6 14.5 27 13.4 W 30 41 16 22 1007.1 1005.6 0.0
15/05:11pm 35.6 31.3 15.3 29 12.8 W 32 50 17 27 1006.9 1005.4 0.0
15/05:00pm 36.6 30.5 14.0 26 14.1 W 39 46 21 25 1006.7 1005.2 0.0
15/04:51pm 35.6 30.3 15.3 29 12.8 W 37 48 20 26 1006.5 1005.0 0.0
15/04:31pm 37.7 35.4 13.0 23 15.2 SW 17 50 9 27 1006.5 1005.0 0.0
15/04:30pm 38.3 36.9 13.5 23 15.4 SW 13 46 7 25 1006.5 1005.0 0.0
15/04:00pm 41.2 41.3 14.5 21 17.0 ENE 7 20 4 11 1006.8 1005.3 0.0
15/03:30pm 42.6 41.0 14.9 20 17.8 NW 17 28 9 15 1007.3 1005.8 0.0
15/03:00pm 40.8 39.9 14.9 22 16.6 NNW 13 24 7 13 1008.0 1006.5 0.0
15/02:30pm 40.8 40.3 14.9 22 16.5 W 11 19 6 10 1008.6 1007.1 0.0
15/02:00pm 40.2 38.5 15.7 23 15.8 W 19 24 10 13 1009.2 1007.7 0.0
15/01:30pm 40.0 38.8 16.2 24 15.4 WNW 17 26 9 14 1009.9 1008.3 0.0
15/01:00pm 39.5 39.7 17.6 27 14.4 WSW 13 19 7 10 1010.4 1008.9 0.0
15/12:30pm 37.9 37.4 16.8 29 13.7 WSW 15 24 8 13 1011.0 1009.5 0.0
15/12:00pm 36.7 36.0 17.3 31 12.6 W 17 28 9 15 1011.6 1010.1 0.0
15/11:30am 36.4 36.2 17.5 32 12.3 WSW 15 24 8 13 1012.2 1010.7 0.0

Other Formats:

Comma delimited format used in spreadsheet applications
http://www.bom.gov.au/fwo/IDQ60801/IDQ60801.94341.axf

JavaScript Object Notation format (JSON) in row-major order
http://www.bom.gov.au/fwo/IDQ60801/IDQ60801.94341.json